Time;durP1;ratioP1;P1;durP2;ratioP2;P2;SDS_P1;SDS_P2;PMS_P1;PMS_P2;Temp;Humidity;BMP_temperature;BMP_pressure;BME280_temperature;BME280_humidity;BME280_pressure;Samples;Min_cycle;Max_cycle;Signal;HPM_P1;HPM_P2
2023/04/15 00:02:18;;;;;;;5.18;1.80;;;;;;;12.17;53.79;99880.53;10369475;28;20049;-76
2023/04/15 00:07:19;;;;;;;3.72;1.77;;;;;;;12.40;54.36;99927.47;10361643;28;20076;-75
2023/04/15 00:12:20;;;;;;;7.25;2.05;;;;;;;12.30;54.51;99925.97;10328884;28;20069;-76
2023/04/15 00:17:21;;;;;;;2.38;1.42;;;;;;;12.37;54.93;99963.31;10328613;28;20042;-75
2023/04/15 00:22:22;;;;;;;4.20;1.85;;;;;;;12.17;55.87;99947.09;10329715;28;20485;-76
2023/04/15 00:27:23;;;;;;;5.60;1.92;;;;;;;12.09;56.51;99963.22;10329671;28;20046;-76
2023/04/15 00:32:24;;;;;;;3.20;2.17;;;;;;;12.13;56.93;99993.78;10328643;28;20045;-75
2023/04/15 00:37:24;;;;;;;3.97;2.28;;;;;;;11.80;57.03;99937.44;10328001;28;20487;-77
2023/04/15 00:42:26;;;;;;;5.10;2.10;;;;;;;11.99;57.63;99987.44;10328197;28;20044;-79
2023/04/15 00:47:29;;;;;;;4.63;2.35;;;;;;;11.62;58.26;99929.84;10326840;28;20050;-78
2023/04/15 00:52:30;;;;;;;4.38;2.15;;;;;;;11.71;58.53;99943.88;10328255;28;20054;-77
2023/04/15 00:57:31;;;;;;;2.92;1.90;;;;;;;11.56;59.35;99920.75;10327201;28;20042;-77
2023/04/15 01:02:32;;;;;;;4.80;2.38;;;;;;;11.75;59.63;99977.91;10327402;28;20560;-76
2023/04/15 01:07:32;;;;;;;4.50;2.25;;;;;;;11.90;61.13;100012.50;10328012;28;20039;-76
2023/04/15 01:12:34;;;;;;;4.35;2.60;;;;;;;11.80;61.96;100014.63;10325987;28;20081;-77
2023/04/15 01:17:36;;;;;;;3.25;2.35;;;;;;;11.49;63.20;99998.84;10327767;28;20071;-76
2023/04/15 01:22:37;;;;;;;4.47;2.25;;;;;;;11.56;63.55;100018.38;10327181;28;20046;-78
2023/04/15 01:27:44;;;;;;;3.30;2.33;;;;;;;11.49;65.00;100034.25;10326607;28;20071;-77
2023/04/15 01:32:45;;;;;;;5.53;2.15;;;;;;;11.35;63.83;100024.41;10325724;28;20412;-78
2023/04/15 01:37:47;;;;;;;4.28;2.42;;;;;;;11.57;64.15;100070.56;10326652;28;20042;-76
2023/04/15 01:42:47;;;;;;;3.80;2.40;;;;;;;11.39;63.69;100036.31;10326656;28;20042;-76
2023/04/15 01:47:49;;;;;;;4.10;2.58;;;;;;;11.59;63.84;100074.69;10326168;28;20529;-78
2023/04/15 01:52:49;;;;;;;3.90;2.60;;;;;;;10.96;63.87;99975.72;10325706;28;20077;-76
2023/04/15 01:57:51;;;;;;;3.85;2.70;;;;;;;11.20;63.86;100022.53;10326278;28;20065;-75
2023/04/15 02:02:52;;;;;;;4.05;2.80;;;;;;;11.50;64.25;100080.28;10325881;28;20103;-74
2023/04/15 02:07:52;;;;;;;5.22;3.30;;;;;;;11.57;64.76;100103.31;10325769;28;20038;-77
2023/04/15 02:12:53;;;;;;;5.43;2.92;;;;;;;11.04;64.72;100025.34;10325708;28;20067;-77
2023/04/15 02:17:54;;;;;;;5.85;3.35;;;;;;;11.09;64.97;100044.22;10325470;28;20112;-76
2023/04/15 02:22:56;;;;;;;4.00;2.90;;;;;;;11.39;65.62;100100.16;10326578;28;20079;-75
2023/04/15 02:27:57;;;;;;;6.13;3.10;;;;;;;11.05;65.92;100071.34;10368326;28;20508;-76
2023/04/15 02:32:57;;;;;;;5.40;3.15;;;;;;;11.39;66.46;100132.88;10437231;28;20436;-76
2023/04/15 02:37:59;;;;;;;5.57;3.67;;;;;;;11.41;67.22;100138.84;10572865;28;20050;-75
2023/04/15 02:43:00;;;;;;;8.52;4.03;;;;;;;10.89;67.62;100067.81;10587143;28;20041;-75
2023/04/15 02:48:04;;;;;;;6.97;3.90;;;;;;;11.32;67.83;100152.41;10577767;28;20074;-75
2023/04/15 02:53:06;;;;;;;7.00;3.75;;;;;;;11.21;68.28;100145.66;10579512;28;20050;-75
2023/04/15 02:58:06;;;;;;;7.25;3.45;;;;;;;11.01;68.95;100125.84;10587156;28;20402;-74
2023/04/15 03:03:07;;;;;;;5.13;3.50;;;;;;;11.12;68.98;100147.53;10459021;27;20046;-76
2023/04/15 03:08:08;;;;;;;6.78;3.67;;;;;;;11.32;69.09;100179.00;10450188;28;20493;-75
2023/04/15 03:13:09;;;;;;;6.90;3.83;;;;;;;10.73;69.08;100094.47;10371375;28;20062;-76
2023/04/15 03:18:10;;;;;;;7.68;4.45;;;;;;;11.16;69.88;100191.41;10370802;28;20487;-76
2023/04/15 03:23:10;;;;;;;6.85;4.10;;;;;;;11.24;69.93;100197.66;10371308;28;20038;-76
2023/04/15 03:28:11;;;;;;;7.38;4.00;;;;;;;11.27;70.38;100219.41;10371668;28;20048;-75
2023/04/15 03:33:12;;;;;;;7.93;4.55;;;;;;;11.18;70.89;100207.97;10368637;28;20042;-75
2023/04/15 03:38:13;;;;;;;6.40;4.47;;;;;;;11.25;70.84;100213.44;10370449;28;20061;-74
2023/04/15 03:43:13;;;;;;;7.15;4.60;;;;;;;11.35;71.12;100234.50;10369903;28;20083;-74
2023/04/15 03:48:14;;;;;;;7.00;4.30;;;;;;;11.38;71.67;100240.28;10369598;28;20069;-75
2023/04/15 03:53:15;;;;;;;6.93;3.90;;;;;;;11.03;71.63;100177.84;10329751;28;20042;-75
2023/04/15 03:58:16;;;;;;;8.20;4.00;;;;;;;10.95;72.32;100176.06;10372546;28;20129;-74
2023/04/15 04:03:17;;;;;;;7.30;3.92;;;;;;;11.41;72.71;100271.03;10561826;28;20122;-74
2023/04/15 04:08:19;;;;;;;6.15;4.10;;;;;;;11.43;73.00;100274.34;10583310;28;20039;-74
2023/04/15 04:13:19;;;;;;;5.35;3.83;;;;;;;11.24;73.33;100238.38;10583531;28;20200;-76
2023/04/15 04:18:20;;;;;;;4.22;2.90;;;;;;;11.43;73.83;100264.53;10582825;28;20122;-75
2023/04/15 04:23:21;;;;;;;3.33;2.30;;;;;;;11.45;73.89;100268.84;10583395;28;20043;-74
2023/04/15 04:28:22;;;;;;;2.47;1.58;;;;;;;11.34;74.37;100262.94;10482350;28;20138;-76
2023/04/15 04:33:23;;;;;;;3.05;1.48;;;;;;;11.16;74.64;100244.56;10517728;28;20091;-75
2023/04/15 04:38:24;;;;;;;3.00;1.50;;;;;;;11.35;74.42;100277.88;10341941;28;20456;-76
2023/04/15 04:43:25;;;;;;;1.95;1.20;;;;;;;11.06;74.70;100265.22;10537008;28;20181;-75
2023/04/15 04:48:26;;;;;;;1.60;0.85;;;;;;;11.12;74.93;100323.00;10581394;28;20040;-76
2023/04/15 04:53:26;;;;;;;3.13;0.90;;;;;;;10.96;75.52;100315.09;10542638;28;20054;-77
2023/04/15 04:58:28;;;;;;;1.15;0.60;;;;;;;10.81;76.38;100309.66;10327257;28;20112;-76
2023/04/15 05:03:29;;;;;;;2.10;1.00;;;;;;;10.64;76.54;100308.03;10327164;28;20089;-76
2023/04/15 05:08:29;;;;;;;2.08;0.70;;;;;;;10.75;75.79;100339.56;10327201;28;20096;-77
2023/04/15 05:13:30;;;;;;;0.90;0.60;;;;;;;10.02;75.92;100243.03;10326241;28;20065;-77
2023/04/15 05:18:31;;;;;;;0.65;0.40;;;;;;;10.42;75.68;100304.25;10326825;28;20080;-76
2023/04/15 05:23:31;;;;;;;1.20;0.40;;;;;;;10.49;75.42;100322.00;10327038;28;20046;-75
2023/04/15 05:28:33;;;;;;;1.80;0.55;;;;;;;10.76;75.43;100374.94;10326383;28;20432;-75
2023/04/15 05:33:33;;;;;;;1.17;0.60;;;;;;;10.76;75.61;100367.78;10327004;28;20130;-76
2023/04/15 05:38:34;;;;;;;1.75;0.60;;;;;;;10.37;75.06;100301.28;10326791;28;20132;-76
2023/04/15 05:43:35;;;;;;;2.40;0.70;;;;;;;10.65;75.15;100344.22;10375229;28;20045;-77
2023/04/15 05:48:36;;;;;;;1.95;0.70;;;;;;;10.84;75.49;100380.25;10367693;28;20046;-77
2023/04/15 05:53:36;;;;;;;40.75;16.95;;;;;;;10.95;74.99;100398.50;10367042;28;20046;-77
2023/04/15 05:58:37;;;;;;;95.30;35.28;;;;;;;11.10;75.00;100401.31;10366268;28;20080;-77
2023/04/15 06:03:38;;;;;;;57.33;29.85;;;;;;;11.29;74.64;100392.09;10459301;28;20066;-78
2023/04/15 06:08:39;;;;;;;11.23;4.32;;;;;;;11.18;74.07;100369.34;10473493;28;20050;-78
2023/04/15 06:13:40;;;;;;;2.97;1.40;;;;;;;11.31;74.56;100412.19;10365166;28;20070;-78
2023/04/15 06:18:41;;;;;;;6.60;1.20;;;;;;;11.32;74.65;100403.22;10365434;28;20042;-80
2023/04/15 06:23:41;;;;;;;8.65;0.80;;;;;;;11.03;74.74;100381.69;10445201;28;20050;-78
2023/04/15 06:28:42;;;;;;;1.38;0.50;;;;;;;10.91;74.66;100355.47;10516940;28;20044;-80
2023/04/15 06:33:43;;;;;;;1.27;0.63;;;;;;;11.39;73.88;100420.13;10478197;28;20065;-77
2023/04/15 06:38:44;;;;;;;2.10;1.20;;;;;;;11.48;73.57;100452.03;10446176;28;20042;-77
2023/04/15 06:43:45;;;;;;;1.60;0.85;;;;;;;11.34;73.27;100419.00;10562443;28;20043;-77
2023/04/15 06:48:46;;;;;;;2.15;1.10;;;;;;;11.50;73.15;100418.13;10561082;28;20042;-77
2023/04/15 06:53:47;;;;;;;2.88;0.60;;;;;;;11.63;72.50;100415.72;10550857;28;20039;-78
2023/04/15 06:58:48;;;;;;;3.17;1.23;;;;;;;11.92;72.02;100462.22;10578059;28;20047;-76
2023/04/15 07:03:49;;;;;;;2.83;0.73;;;;;;;11.81;71.73;100458.88;10578246;28;20567;-78
2023/04/15 07:08:49;;;;;;;1.05;0.50;;;;;;;11.80;71.93;100469.72;10579411;28;20093;-76
2023/04/15 07:13:50;;;;;;;2.85;1.00;;;;;;;11.60;71.91;100432.03;10586021;28;20106;-75
2023/04/15 07:18:51;;;;;;;5.63;3.42;;;;;;;11.79;71.78;100455.59;10569063;28;20050;-76
2023/04/15 07:23:52;;;;;;;4.90;2.53;;;;;;;11.97;71.08;100465.19;10496391;28;20038;-77
2023/04/15 07:28:53;;;;;;;5.72;3.05;;;;;;;12.26;70.51;100462.66;10397909;28;20410;-77
2023/04/15 07:33:53;;;;;;;7.80;3.50;;;;;;;12.33;69.80;100450.31;10510237;28;20035;-77
2023/04/15 07:38:54;;;;;;;4.78;1.90;;;;;;;12.23;68.85;100414.25;10585949;27;20043;-76
2023/04/15 07:43:55;;;;;;;3.30;1.33;;;;;;;12.48;68.91;100478.88;10377727;28;20382;-77
2023/04/15 07:48:56;;;;;;;10.80;1.00;;;;;;;12.53;68.62;100453.34;10370684;28;20034;-74
2023/04/15 07:53:57;;;;;;;1.60;0.85;;;;;;;12.71;67.71;100490.38;10369476;28;20050;-75
2023/04/15 07:59:00;;;;;;;2.30;0.50;;;;;;;12.61;67.79;100473.78;10370106;28;20038;-75
2023/04/15 08:04:02;;;;;;;1.30;0.60;;;;;;;12.56;66.98;100473.47;10420545;28;20069;-76
2023/04/15 08:09:03;;;;;;;2.17;1.10;;;;;;;12.69;67.36;100500.38;10565680;28;20569;-76
2023/04/15 08:14:04;;;;;;;17.40;1.60;;;;;;;12.22;67.18;100436.59;10489082;28;20188;-74
2023/04/15 08:19:04;;;;;;;2.75;0.93;;;;;;;12.39;67.14;100486.09;10512377;28;20417;-75
2023/04/15 08:24:06;;;;;;;5.07;1.00;;;;;;;12.44;67.11;100494.34;10583825;28;20039;-77
2023/04/15 08:29:08;;;;;;;3.13;1.65;;;;;;;12.62;66.72;100490.59;10497126;28;20042;-76
2023/04/15 08:34:09;;;;;;;4.03;2.20;;;;;;;12.16;66.06;100395.50;10479774;28;20049;-76
2023/04/15 08:39:10;;;;;;;3.03;1.80;;;;;;;12.22;66.36;100432.06;10424747;28;20052;-74
2023/04/15 08:44:12;;;;;;;1.98;1.10;;;;;;;12.55;66.41;100507.28;10558909;28;20482;-77
2023/04/15 08:49:14;;;;;;;3.03;1.92;;;;;;;12.32;66.69;100528.59;10422752;28;20047;-76
2023/04/15 08:54:15;;;;;;;4.60;2.00;;;;;;;11.96;66.80;100532.72;10581491;28;20468;-79
2023/04/15 08:59:17;;;;;;;6.07;2.47;;;;;;;11.83;67.10;100523.44;10508184;28;20093;-77
2023/04/15 09:04:17;;;;;;;3.05;1.20;;;;;;;11.59;66.79;100502.22;10461469;28;20392;-77
2023/04/15 09:09:18;;;;;;;6.10;3.75;;;;;;;11.64;66.36;100522.00;10478334;28;20039;-76
2023/04/15 09:14:19;;;;;;;2.47;1.00;;;;;;;11.41;66.62;100516.56;10402198;28;20058;-77
2023/04/15 09:19:22;;;;;;;2.92;1.60;;;;;;;11.35;66.53;100535.03;10328890;28;20050;-77
2023/04/15 09:24:23;;;;;;;5.30;1.80;;;;;;;11.46;66.86;100568.41;10415486;28;20060;-77
2023/04/15 09:29:27;;;;;;;4.00;1.40;;;;;;;11.42;66.79;100583.88;10328570;28;20500;-75
2023/04/15 09:34:35;;;;;;;7.17;1.40;;;;;;;11.52;66.98;100578.41;10325703;28;20042;-76
2023/04/15 09:39:50;;;;;;;4.57;1.73;;;;;;;11.49;66.44;100562.78;10394023;28;20038;-75
2023/04/15 09:44:55;;;;;;;4.47;2.10;;;;;;;11.75;65.87;100581.19;10328705;28;20418;-75
2023/04/15 09:49:57;;;;;;;105.72;45.75;;;;;;;11.69;65.39;100557.91;10414956;28;20043;-75
2023/04/15 09:54:59;;;;;;;12.27;6.22;;;;;;;12.09;64.88;100586.28;10534832;28;20420;-77
2023/04/15 10:00:00;;;;;;;11.15;4.38;;;;;;;11.78;64.45;100528.44;10412939;28;20396;-77
2023/04/15 10:05:02;;;;;;;5.13;1.80;;;;;;;12.24;63.52;100565.91;10527506;28;20039;-76
2023/04/15 10:10:04;;;;;;;2.90;1.50;;;;;;;12.40;63.08;100564.16;10426612;28;20053;-76
2023/04/15 10:15:06;;;;;;;2.05;1.20;;;;;;;12.47;62.78;100557.94;10559451;28;20077;-76
2023/04/15 10:20:09;;;;;;;3.38;1.30;;;;;;;12.44;62.08;100536.16;10497116;28;20494;-76
2023/04/15 10:25:11;;;;;;;2.58;0.90;;;;;;;12.72;62.11;100601.31;10350170;28;20043;-76
2023/04/15 10:30:12;;;;;;;7.07;1.38;;;;;;;12.82;61.40;100618.91;10525107;28;20046;-76
2023/04/15 10:35:13;;;;;;;4.38;1.60;;;;;;;12.56;61.14;100583.59;10579074;28;20443;-74
2023/04/15 10:40:26;;;;;;;3.70;1.55;;;;;;;12.82;61.38;100608.25;10578771;28;20046;-78
2023/04/15 10:45:35;;;;;;;4.97;3.40;;;;;;;12.44;60.24;100523.66;10581737;28;20066;-76
2023/04/15 10:50:36;;;;;;;8.98;6.13;;;;;;;13.06;60.40;100629.41;10587548;28;20039;-78
2023/04/15 10:55:37;;;;;;;4.43;2.53;;;;;;;12.40;60.50;100545.53;10586880;28;20436;-76
2023/04/15 11:00:38;;;;;;;3.08;1.73;;;;;;;11.74;60.34;100433.16;10587334;28;20040;-76
2023/04/15 11:05:42;;;;;;;6.85;2.80;;;;;;;12.29;60.81;100560.91;10586268;28;20474;-76
2023/04/15 11:10:42;;;;;;;3.53;2.00;;;;;;;12.57;61.07;100635.03;10586160;28;20046;-77
2023/04/15 11:15:45;;;;;;;3.28;1.90;;;;;;;12.43;61.84;100646.41;10586661;28;20054;-75
2023/04/15 11:21:16;;;;;;;2.70;1.90;;;;;;;12.15;61.88;100638.88;10460442;28;20044;-76
2023/04/15 11:26:17;;;;;;;2.53;1.50;;;;;;;11.74;62.06;100633.59;10547199;28;20066;-75
2023/04/15 11:31:18;;;;;;;4.57;2.20;;;;;;;11.24;62.66;100592.03;10503856;28;20403;-76
2023/04/15 11:36:19;;;;;;;3.97;1.75;;;;;;;11.52;62.52;100669.69;10371069;28;20106;-75
2023/04/15 11:41:22;;;;;;;4.03;1.50;;;;;;;11.46;62.72;100696.09;10370992;28;20445;-76
2023/04/15 11:46:29;;;;;;;4.75;2.20;;;;;;;11.14;63.38;100679.94;10369288;28;20577;-76
2023/04/15 11:51:34;;;;;;;6.47;3.08;;;;;;;10.97;63.82;100675.59;10457584;28;20497;-76
2023/04/15 11:56:35;;;;;;;3.42;1.80;;;;;;;11.16;63.40;100683.28;10401827;28;20405;-76
2023/04/15 12:01:45;;;;;;;6.00;1.90;;;;;;;11.52;63.37;100711.44;10329632;28;20053;-76
2023/04/15 12:06:46;;;;;;;2.95;1.90;;;;;;;11.30;62.47;100684.44;10329681;28;20126;-77
2023/04/15 12:11:48;;;;;;;4.80;2.00;;;;;;;11.32;63.27;100727.69;10328944;28;20149;-77
2023/04/15 12:16:52;;;;;;;6.18;3.20;;;;;;;11.15;63.24;100725.97;10328808;28;20046;-77
2023/04/15 12:22:01;;;;;;;6.45;3.78;;;;;;;11.10;64.78;100750.41;10329048;28;20445;-79
2023/04/15 12:27:04;;;;;;;7.07;3.90;;;;;;;10.95;65.05;100755.50;10328408;28;20459;-76
2023/04/15 12:32:13;;;;;;;6.13;3.53;;;;;;;10.95;65.65;100733.41;10351804;28;20043;-76
2023/04/15 12:37:14;;;;;;;6.07;3.72;;;;;;;10.75;65.32;100754.09;10509931;28;20046;-78
2023/04/15 12:42:16;;;;;;;9.32;3.70;;;;;;;9.85;65.45;100651.81;10461929;28;20058;-77
2023/04/15 12:47:17;;;;;;;23.27;10.38;;;;;;;10.06;65.88;100692.91;10582185;28;20051;-78
2023/04/15 12:52:18;;;;;;;24.08;12.10;;;;;;;10.01;65.46;100710.31;10581626;28;20043;-76
2023/04/15 12:57:19;;;;;;;6.03;3.53;;;;;;;10.02;65.50;100731.41;10581356;28;20043;-76
2023/04/15 13:02:24;;;;;;;4.32;2.85;;;;;;;10.13;65.63;100777.25;10423905;28;20068;-76
2023/04/15 13:07:24;;;;;;;10.48;6.38;;;;;;;9.74;65.75;100735.13;10474538;28;20134;-76
2023/04/15 13:12:26;;;;;;;5.75;2.92;;;;;;;9.71;66.00;100761.97;10424649;28;20152;-77
2023/04/15 13:17:27;;;;;;;4.85;3.50;;;;;;;10.01;65.87;100827.09;10427604;28;20040;-76
2023/04/15 13:22:28;;;;;;;11.20;4.65;;;;;;;9.97;66.22;100831.88;10519340;28;20118;-77
2023/04/15 13:27:28;;;;;;;5.05;3.20;;;;;;;9.78;66.15;100811.63;10426236;28;20054;-76
2023/04/15 13:32:30;;;;;;;6.22;3.08;;;;;;;9.26;66.31;100757.56;10327025;28;20050;-76
2023/04/15 13:37:30;;;;;;;5.20;3.50;;;;;;;9.29;66.60;100776.63;10409698;28;20118;-77
2023/04/15 13:42:31;;;;;;;5.20;3.25;;;;;;;9.63;67.05;100854.72;10575798;28;20035;-76
2023/04/15 13:47:32;;;;;;;8.50;5.97;;;;;;;9.31;67.38;100834.84;10536333;28;20043;-81
2023/04/15 13:52:34;;;;;;;5.85;3.45;;;;;;;9.47;67.25;100850.09;10455779;28;20046;-77
2023/04/15 13:57:35;;;;;;;8.90;3.83;;;;;;;8.78;66.87;100748.03;10476869;28;20524;-77
2023/04/15 14:02:36;;;;;;;5.63;4.00;;;;;;;9.50;66.92;100866.53;10471957;28;20081;-77
2023/04/15 14:07:36;;;;;;;11.13;3.72;;;;;;;9.34;66.68;100850.44;10436185;28;20076;-77
2023/04/15 14:12:37;;;;;;;4.20;2.28;;;;;;;8.86;66.63;100782.59;10497568;28;20059;-76
2023/04/15 14:17:38;;;;;;;3.63;1.95;;;;;;;8.78;66.92;100795.72;10534519;28;20043;-76
2023/04/15 14:22:39;;;;;;;3.33;1.88;;;;;;;8.73;66.72;100819.16;10587921;28;20495;-77
2023/04/15 14:27:40;;;;;;;3.80;2.70;;;;;;;8.85;66.51;100839.19;10588098;28;20047;-77
2023/04/15 14:32:41;;;;;;;4.63;1.63;;;;;;;9.26;66.47;100928.03;10414909;28;20045;-77
2023/04/15 14:37:42;;;;;;;3.97;2.05;;;;;;;9.16;66.83;100937.03;10332595;28;20050;-76
2023/04/15 14:42:42;;;;;;;3.22;2.22;;;;;;;9.02;67.58;100941.78;10332352;28;20034;-78
2023/04/15 14:47:43;;;;;;;3.80;2.40;;;;;;;8.35;67.37;100832.31;10332651;28;20493;-77
2023/04/15 14:52:45;;;;;;;10.90;2.38;;;;;;;8.86;68.08;100957.47;10331546;28;20073;-77
2023/04/15 14:57:46;;;;;;;4.60;2.15;;;;;;;8.68;68.49;100955.53;10332940;28;20034;-77
2023/04/15 15:02:47;;;;;;;4.32;2.47;;;;;;;8.28;68.77;100902.66;10331121;28;20046;-77
2023/04/15 15:07:47;;;;;;;3.17;2.05;;;;;;;8.32;70.08;100951.72;10332159;28;20050;-76
2023/04/15 15:12:48;;;;;;;13.90;7.03;;;;;;;8.28;71.48;100987.38;10331074;28;20062;-76
2023/04/15 15:17:49;;;;;;;22.10;12.07;;;;;;;7.97;72.01;100949.59;10331021;28;20046;-77
2023/04/15 15:22:50;;;;;;;14.73;7.35;;;;;;;7.51;72.81;100892.84;10330521;28;20409;-78
2023/04/15 15:27:51;;;;;;;11.60;6.47;;;;;;;7.93;73.81;100987.88;10329300;28;20034;-78
2023/04/15 15:32:52;;;;;;;32.38;19.90;;;;;;;7.32;74.37;100907.63;10357169;28;20042;-78
2023/04/15 15:37:53;;;;;;;26.33;15.65;;;;;;;7.67;75.75;101004.22;10256695;28;20142;-78
2023/04/15 15:42:54;;;;;;;8.23;5.28;;;;;;;6.83;75.60;100881.97;10345081;28;20067;-76
2023/04/15 15:47:56;;;;;;;9.07;6.38;;;;;;;7.46;77.33;101014.00;10368987;28;20105;-76
2023/04/15 15:52:57;;;;;;;11.52;7.82;;;;;;;7.12;78.16;101027.44;10348095;28;20066;-74
2023/04/15 15:57:58;;;;;;;8.35;5.47;;;;;;;7.04;79.29;101037.78;10268359;28;20046;-78
2023/04/15 16:02:59;;;;;;;9.80;5.65;;;;;;;7.04;79.96;101054.47;10272181;28;20038;-76
2023/04/15 16:07:59;;;;;;;22.80;9.52;;;;;;;6.60;80.16;101006.16;10341174;28;20042;-79
2023/04/15 16:13:00;;;;;;;6.80;5.10;;;;;;;6.68;80.67;101066.28;10297282;28;20518;-77
2023/04/15 16:18:01;;;;;;;29.77;13.82;;;;;;;6.35;81.30;101054.84;10287824;28;20047;-77
2023/04/15 16:23:12;;;;;;;33.78;12.57;;;;;;;6.25;84.01;101074.16;10265158;28;20047;-72
2023/04/15 16:28:12;;;;;;;24.30;11.40;;;;;;;6.06;82.64;101080.06;10265016;28;20078;-74
2023/04/15 16:33:13;;;;;;;11.73;6.95;;;;;;;6.01;82.96;101088.31;10261891;28;20130;-75
2023/04/15 16:38:14;;;;;;;13.52;7.25;;;;;;;6.06;83.20;101115.19;10263922;28;20035;-77
2023/04/15 16:43:15;;;;;;;19.98;8.27;;;;;;;5.70;83.29;101079.31;10264495;28;20172;-76
2023/04/15 16:48:16;;;;;;;14.07;9.23;;;;;;;5.96;84.61;101134.50;10258526;28;20059;-75
2023/04/15 16:53:17;;;;;;;9.60;6.72;;;;;;;5.94;84.77;101151.25;10254219;28;20088;-77
2023/04/15 16:58:18;;;;;;;13.25;7.05;;;;;;;6.00;85.07;101173.69;10257640;28;20039;-75
2023/04/15 17:03:19;;;;;;;8.20;7.00;;;;;;;5.79;85.72;101155.03;10260391;28;20039;-76
2023/04/15 17:08:21;;;;;;;22.27;9.60;;;;;;;5.89;86.05;101187.69;10257873;28;20050;-77
2023/04/15 17:13:24;;;;;;;9.60;7.43;;;;;;;5.76;86.23;101181.66;10300790;28;20096;-77
2023/04/15 17:18:24;;;;;;;29.90;13.45;;;;;;;5.75;nan;101201.06;10489181;28;20037;-75
2023/04/15 17:23:26;;;;;;;25.40;12.57;;;;;;;5.74;87.41;101215.19;10496916;28;20485;-75
2023/04/15 17:28:26;;;;;;;17.98;9.63;;;;;;;5.15;87.14;101117.75;10436227;28;20404;-76
2023/04/15 17:33:27;;;;;;;19.25;9.50;;;;;;;5.22;87.41;101126.88;10495942;28;20052;-77
2023/04/15 17:38:28;;;;;;;34.33;11.48;;;;;;;5.55;88.29;101193.81;10495887;28;20064;-77
2023/04/15 17:43:29;;;;;;;29.80;11.32;;;;;;;5.75;88.62;101222.16;10496081;28;20484;-76
2023/04/15 17:48:30;;;;;;;12.75;8.20;;;;;;;5.77;89.51;101228.13;10345979;28;20423;-76
2023/04/15 17:53:30;;;;;;;19.30;9.77;;;;;;;5.25;88.61;101142.44;10244299;28;20457;-77
2023/04/15 17:58:31;;;;;;;17.17;8.57;;;;;;;5.16;88.94;101122.06;10245682;28;20121;-76
2023/04/15 18:03:32;;;;;;;15.25;8.77;;;;;;;5.77;88.45;101233.41;10253442;28;20077;-76
2023/04/15 18:08:33;;;;;;;15.70;8.15;;;;;;;5.74;88.43;101225.72;10288131;28;20042;-76
2023/04/15 18:13:33;;;;;;;12.13;7.50;;;;;;;5.48;88.26;101204.81;10259430;28;20059;-76
2023/04/15 18:18:36;;;;;;;11.63;7.55;;;;;;;5.39;87.62;101197.59;10260806;28;20057;-76
2023/04/15 18:23:37;;;;;;;16.08;7.88;;;;;;;5.26;87.17;101186.25;10283687;28;20042;-77
2023/04/15 18:28:38;;;;;;;11.25;7.10;;;;;;;5.61;87.28;101248.69;10314254;28;20579;-77
2023/04/15 18:33:39;;;;;;;14.95;7.50;;;;;;;5.58;87.01;101257.66;10323297;28;20051;-76
2023/04/15 18:38:40;;;;;;;14.25;7.63;;;;;;;5.51;86.45;101247.72;10344383;28;20059;-77
2023/04/15 18:43:41;;;;;;;9.50;5.63;;;;;;;4.57;85.93;101083.34;10268110;28;20058;-77
2023/04/15 18:48:42;;;;;;;17.33;7.55;;;;;;;5.57;86.30;101263.06;10335972;28;20051;-77
2023/04/15 18:53:43;;;;;;;8.50;5.50;;;;;;;5.49;86.26;101264.47;10269845;28;20043;-76
2023/04/15 18:58:44;;;;;;;6.93;4.82;;;;;;;5.51;85.64;101274.06;10296495;28;20043;-76
2023/04/15 19:03:45;;;;;;;9.57;5.20;;;;;;;4.76;85.85;101152.16;10260093;28;20031;-76
2023/04/15 19:08:45;;;;;;;11.68;5.38;;;;;;;5.29;85.89;101241.34;10267309;28;20039;-75
2023/04/15 19:13:46;;;;;;;23.98;13.82;;;;;;;4.91;85.73;101184.44;10296424;28;20414;-75
2023/04/15 19:18:47;;;;;;;9.73;5.65;;;;;;;5.44;85.04;101263.97;10277793;28;20487;-75
2023/04/15 19:23:48;;;;;;;8.25;5.45;;;;;;;5.39;85.00;101250.28;10265748;28;20470;-74
2023/04/15 19:28:51;;;;;;;8.00;4.88;;;;;;;5.13;85.98;101217.94;10267851;28;20153;-74
2023/04/15 19:33:52;;;;;;;6.68;4.38;;;;;;;5.17;85.58;101264.16;10290612;28;20138;-74
2023/04/15 19:38:53;;;;;;;6.43;4.68;;;;;;;4.66;85.17;101179.22;10291430;28;20134;-74
2023/04/15 19:43:54;;;;;;;12.27;6.47;;;;;;;4.99;84.84;101247.88;10289669;28;20126;-75
2023/04/15 19:48:55;;;;;;;5.90;4.20;;;;;;;5.07;84.68;101262.31;10269381;28;20093;-75
2023/04/15 19:53:55;;;;;;;7.22;4.38;;;;;;;5.17;84.55;101287.88;10303804;28;20047;-76
2023/04/15 19:58:58;;;;;;;8.32;4.68;;;;;;;5.18;83.76;101304.53;10469429;28;20135;-76
2023/04/15 20:03:59;;;;;;;10.10;4.80;;;;;;;4.27;83.88;101167.94;10491322;28;20036;-75
2023/04/15 20:09:00;;;;;;;6.32;4.50;;;;;;;4.76;84.05;101248.69;10447551;28;20044;-75
2023/04/15 20:14:01;;;;;;;9.30;5.40;;;;;;;5.02;84.32;101284.53;10500131;28;20056;-75
2023/04/15 20:19:07;;;;;;;9.38;4.97;;;;;;;4.20;83.35;101158.78;10498866;28;20044;-76
2023/04/15 20:24:08;;;;;;;6.90;4.28;;;;;;;4.94;83.70;101286.88;10483737;28;20121;-74
2023/04/15 20:29:09;;;;;;;9.48;4.60;;;;;;;5.09;83.08;101311.28;10454088;28;20109;-78
2023/04/15 20:34:09;;;;;;;8.38;4.20;;;;;;;4.73;83.47;101247.13;10498416;28;20173;-76
2023/04/15 20:39:10;;;;;;;12.32;4.38;;;;;;;5.17;83.25;101329.16;10499654;28;20048;-75
2023/04/15 20:44:11;;;;;;;8.05;4.60;;;;;;;4.95;82.97;101287.72;10498588;28;20040;-75
2023/04/15 20:49:12;;;;;;;5.38;3.78;;;;;;;5.21;82.92;101326.22;10498281;28;20047;-75
2023/04/15 20:54:13;;;;;;;8.52;4.47;;;;;;;4.83;82.70;101257.84;10498956;28;20044;-75
2023/04/15 20:59:14;;;;;;;6.88;4.22;;;;;;;5.26;83.41;101333.78;10436229;28;20036;-75
2023/04/15 21:04:15;;;;;;;6.10;4.25;;;;;;;5.20;82.75;101316.63;10498236;28;20439;-76
2023/04/15 21:09:16;;;;;;;8.13;4.22;;;;;;;5.12;83.04;101302.34;10498001;28;20048;-75
2023/04/15 21:14:17;;;;;;;11.93;4.15;;;;;;;5.41;82.41;101345.84;10496526;28;20067;-76
2023/04/15 21:19:18;;;;;;;6.38;4.45;;;;;;;5.28;82.23;101337.16;10497423;28;20048;-76
2023/04/15 21:24:18;;;;;;;8.15;3.92;;;;;;;5.15;82.51;101320.56;10496605;28;20032;-75
2023/04/15 21:29:19;;;;;;;6.22;3.88;;;;;;;5.19;82.14;101333.38;10479771;28;20039;-73
2023/04/15 21:34:20;;;;;;;7.28;4.05;;;;;;;5.35;82.05;101358.63;10451135;28;20048;-74
2023/04/15 21:39:21;;;;;;;9.18;4.00;;;;;;;5.35;82.46;101354.19;10497153;28;20036;-74
2023/04/15 21:44:21;;;;;;;6.10;3.88;;;;;;;5.39;82.14;101366.22;10496027;28;20179;-73
2023/04/15 21:49:22;;;;;;;5.15;3.78;;;;;;;5.36;81.80;101350.63;10440284;28;20120;-74
2023/04/15 21:54:23;;;;;;;5.35;3.33;;;;;;;5.29;82.21;101338.00;10401794;28;20087;-74
2023/04/15 21:59:25;;;;;;;5.60;3.97;;;;;;;4.68;81.83;101240.50;10495966;28;20037;-74
2023/04/15 22:04:25;;;;;;;5.60;3.90;;;;;;;5.39;82.45;101363.59;10495957;28;20135;-74
2023/04/15 22:09:26;;;;;;;7.90;3.65;;;;;;;5.16;81.93;101354.69;10495612;28;20127;-75
2023/04/15 22:14:29;;;;;;;7.03;4.05;;;;;;;5.10;82.37;101370.91;10495984;28;20056;-76
2023/04/15 22:19:30;;;;;;;8.80;4.82;;;;;;;5.20;82.86;101365.84;10493681;28;20139;-76
2023/04/15 22:24:31;;;;;;;7.32;4.40;;;;;;;5.20;82.12;101382.47;10495620;28;20131;-76
2023/04/15 22:29:31;;;;;;;9.35;4.57;;;;;;;5.13;82.22;101368.06;10495367;28;20036;-76
2023/04/15 22:34:33;;;;;;;8.48;5.32;;;;;;;5.24;82.33;101377.84;10495560;28;20412;-76
2023/04/15 22:39:34;;;;;;;7.68;4.30;;;;;;;5.23;82.73;101357.72;10498271;28;20072;-76
2023/04/15 22:44:35;;;;;;;6.07;3.90;;;;;;;4.96;82.42;101323.63;10504015;28;20090;-76
2023/04/15 22:49:36;;;;;;;9.20;4.15;;;;;;;4.62;82.52;101311.97;10503265;28;20098;-76
2023/04/15 22:54:36;;;;;;;9.18;4.40;;;;;;;4.98;82.97;101385.78;10502491;28;20044;-76
2023/04/15 22:59:37;;;;;;;6.80;4.05;;;;;;;4.85;83.31;101371.78;10503248;28;20428;-76
2023/04/15 23:04:38;;;;;;;7.78;4.78;;;;;;;4.32;83.45;101289.44;10502418;28;20123;-76
2023/04/15 23:09:39;;;;;;;6.25;4.45;;;;;;;4.27;83.49;101296.81;10501908;28;20040;-76